sensor_id;sensor_type;location;lat;lon;timestamp;temperature;humidity
69595;DHT22;56800;52.142;5.364;2022-12-07T00:01:43;5.40;82.90
69595;DHT22;56800;52.142;5.364;2022-12-07T00:04:12;5.40;83.00
69595;DHT22;56800;52.142;5.364;2022-12-07T00:06:42;5.40;83.00
69595;DHT22;56800;52.142;5.364;2022-12-07T00:09:14;5.40;82.90
69595;DHT22;56800;52.142;5.364;2022-12-07T00:11:42;5.40;82.90
69595;DHT22;56800;52.142;5.364;2022-12-07T00:14:13;5.40;82.90
69595;DHT22;56800;52.142;5.364;2022-12-07T00:16:41;5.40;82.90
69595;DHT22;56800;52.142;5.364;2022-12-07T00:19:10;5.40;82.80
69595;DHT22;56800;52.142;5.364;2022-12-07T00:21:38;5.40;82.80
69595;DHT22;56800;52.142;5.364;2022-12-07T00:24:05;5.30;82.70
69595;DHT22;56800;52.142;5.364;2022-12-07T00:26:34;5.30;82.70
69595;DHT22;56800;52.142;5.364;2022-12-07T00:29:04;5.30;82.70
69595;DHT22;56800;52.142;5.364;2022-12-07T00:31:33;5.20;82.70
69595;DHT22;56800;52.142;5.364;2022-12-07T00:34:01;5.20;82.70
69595;DHT22;56800;52.142;5.364;2022-12-07T00:36:28;5.20;82.70
69595;DHT22;56800;52.142;5.364;2022-12-07T00:38:57;5.20;82.80
69595;DHT22;56800;52.142;5.364;2022-12-07T00:41:25;5.20;82.80
69595;DHT22;56800;52.142;5.364;2022-12-07T00:43:53;5.20;82.90
69595;DHT22;56800;52.142;5.364;2022-12-07T00:46:21;5.20;82.90
69595;DHT22;56800;52.142;5.364;2022-12-07T00:48:49;5.20;82.90
69595;DHT22;56800;52.142;5.364;2022-12-07T00:51:17;5.10;82.80
69595;DHT22;56800;52.142;5.364;2022-12-07T00:53:44;5.10;82.70
69595;DHT22;56800;52.142;5.364;2022-12-07T00:56:25;5.10;82.70
69595;DHT22;56800;52.142;5.364;2022-12-07T00:58:53;5.10;82.70
69595;DHT22;56800;52.142;5.364;2022-12-07T01:01:20;5.00;82.60
69595;DHT22;56800;52.142;5.364;2022-12-07T01:03:47;5.00;82.70
69595;DHT22;56800;52.142;5.364;2022-12-07T01:06:19;5.00;82.80
69595;DHT22;56800;52.142;5.364;2022-12-07T01:08:46;5.00;82.80
69595;DHT22;56800;52.142;5.364;2022-12-07T01:11:16;5.00;82.70
69595;DHT22;56800;52.142;5.364;2022-12-07T01:13:44;5.00;82.60
69595;DHT22;56800;52.142;5.364;2022-12-07T01:16:13;4.90;82.60
69595;DHT22;56800;52.142;5.364;2022-12-07T01:18:42;4.90;82.60
69595;DHT22;56800;52.142;5.364;2022-12-07T01:21:16;4.90;82.70
69595;DHT22;56800;52.142;5.364;2022-12-07T01:23:51;4.90;82.80
69595;DHT22;56800;52.142;5.364;2022-12-07T01:26:21;4.90;82.80
69595;DHT22;56800;52.142;5.364;2022-12-07T01:28:51;4.90;82.80
69595;DHT22;56800;52.142;5.364;2022-12-07T01:31:24;4.90;82.80
69595;DHT22;56800;52.142;5.364;2022-12-07T01:33:53;4.90;82.80
69595;DHT22;56800;52.142;5.364;2022-12-07T01:36:22;4.90;82.80
69595;DHT22;56800;52.142;5.364;2022-12-07T01:38:54;4.90;82.70
69595;DHT22;56800;52.142;5.364;2022-12-07T01:41:24;4.80;82.60
69595;DHT22;56800;52.142;5.364;2022-12-07T01:44:25;4.80;82.60
69595;DHT22;56800;52.142;5.364;2022-12-07T01:46:56;4.80;82.60
69595;DHT22;56800;52.142;5.364;2022-12-07T01:49:28;4.80;82.50
69595;DHT22;56800;52.142;5.364;2022-12-07T01:54:46;4.80;82.60
69595;DHT22;56800;52.142;5.364;2022-12-07T01:57:15;4.70;82.50
69595;DHT22;56800;52.142;5.364;2022-12-07T01:59:45;4.70;82.50
69595;DHT22;56800;52.142;5.364;2022-12-07T02:02:18;4.70;82.50
69595;DHT22;56800;52.142;5.364;2022-12-07T02:04:46;4.70;82.50
69595;DHT22;56800;52.142;5.364;2022-12-07T02:07:13;4.60;82.50
69595;DHT22;56800;52.142;5.364;2022-12-07T02:09:39;4.70;82.50
69595;DHT22;56800;52.142;5.364;2022-12-07T02:12:06;4.60;82.50
69595;DHT22;56800;52.142;5.364;2022-12-07T02:14:33;4.60;82.60
69595;DHT22;56800;52.142;5.364;2022-12-07T02:20:06;4.60;82.80
69595;DHT22;56800;52.142;5.364;2022-12-07T02:22:57;4.60;82.80
69595;DHT22;56800;52.142;5.364;2022-12-07T02:31:25;4.60;82.80
69595;DHT22;56800;52.142;5.364;2022-12-07T02:34:07;4.60;82.60
69595;DHT22;56800;52.142;5.364;2022-12-07T02:36:39;4.60;82.60
69595;DHT22;56800;52.142;5.364;2022-12-07T02:39:14;4.60;82.60
69595;DHT22;56800;52.142;5.364;2022-12-07T02:41:47;4.60;82.60
69595;DHT22;56800;52.142;5.364;2022-12-07T02:44:18;4.60;82.60
69595;DHT22;56800;52.142;5.364;2022-12-07T02:47:02;4.60;82.70
69595;DHT22;56800;52.142;5.364;2022-12-07T02:49:30;4.50;82.60
69595;DHT22;56800;52.142;5.364;2022-12-07T02:51:57;4.50;82.60
69595;DHT22;56800;52.142;5.364;2022-12-07T02:54:24;4.50;82.70
69595;DHT22;56800;52.142;5.364;2022-12-07T02:59:52;4.60;82.90
69595;DHT22;56800;52.142;5.364;2022-12-07T03:02:46;4.60;82.90
69595;DHT22;56800;52.142;5.364;2022-12-07T03:08:38;4.70;83.10
69595;DHT22;56800;52.142;5.364;2022-12-07T03:11:29;4.70;83.10
69595;DHT22;56800;52.142;5.364;2022-12-07T03:14:13;4.70;83.00
69595;DHT22;56800;52.142;5.364;2022-12-07T03:16:55;4.70;83.00
69595;DHT22;56800;52.142;5.364;2022-12-07T03:19:26;4.70;83.00
69595;DHT22;56800;52.142;5.364;2022-12-07T03:22:08;4.80;83.10
69595;DHT22;56800;52.142;5.364;2022-12-07T03:24:43;4.70;83.00
69595;DHT22;56800;52.142;5.364;2022-12-07T03:27:16;4.80;83.10
69595;DHT22;56800;52.142;5.364;2022-12-07T03:29:54;4.80;83.70
69595;DHT22;56800;52.142;5.364;2022-12-07T03:32:27;4.70;82.90
69595;DHT22;56800;52.142;5.364;2022-12-07T03:35:03;4.70;82.80
69595;DHT22;56800;52.142;5.364;2022-12-07T03:37:33;4.70;82.80
69595;DHT22;56800;52.142;5.364;2022-12-07T03:42:33;4.70;82.90
69595;DHT22;56800;52.142;5.364;2022-12-07T03:45:01;4.70;82.80
69595;DHT22;56800;52.142;5.364;2022-12-07T03:47:54;4.70;82.90
69595;DHT22;56800;52.142;5.364;2022-12-07T03:50:38;4.70;82.90
69595;DHT22;56800;52.142;5.364;2022-12-07T03:53:19;4.70;83.00
69595;DHT22;56800;52.142;5.364;2022-12-07T03:55:48;4.70;83.00
69595;DHT22;56800;52.142;5.364;2022-12-07T03:58:20;4.70;83.10
69595;DHT22;56800;52.142;5.364;2022-12-07T04:00:49;4.70;83.10
69595;DHT22;56800;52.142;5.364;2022-12-07T04:03:16;4.80;83.10
69595;DHT22;56800;52.142;5.364;2022-12-07T04:05:44;4.80;83.10
69595;DHT22;56800;52.142;5.364;2022-12-07T04:08:10;4.80;83.10
69595;DHT22;56800;52.142;5.364;2022-12-07T04:10:37;4.80;83.20
69595;DHT22;56800;52.142;5.364;2022-12-07T04:13:04;4.80;83.10
69595;DHT22;56800;52.142;5.364;2022-12-07T04:15:31;4.80;83.20
69595;DHT22;56800;52.142;5.364;2022-12-07T04:17:57;4.80;83.30
69595;DHT22;56800;52.142;5.364;2022-12-07T04:20:24;4.80;83.30
69595;DHT22;56800;52.142;5.364;2022-12-07T04:22:51;4.80;83.30
69595;DHT22;56800;52.142;5.364;2022-12-07T04:25:18;4.90;83.40
69595;DHT22;56800;52.142;5.364;2022-12-07T04:27:44;4.90;83.40
69595;DHT22;56800;52.142;5.364;2022-12-07T04:30:11;4.90;83.30
69595;DHT22;56800;52.142;5.364;2022-12-07T04:32:38;4.90;83.30
69595;DHT22;56800;52.142;5.364;2022-12-07T04:35:05;4.90;83.20
69595;DHT22;56800;52.142;5.364;2022-12-07T04:37:32;4.90;83.10
69595;DHT22;56800;52.142;5.364;2022-12-07T04:39:59;4.90;83.00
69595;DHT22;56800;52.142;5.364;2022-12-07T04:42:26;4.90;83.10
69595;DHT22;56800;52.142;5.364;2022-12-07T04:44:53;4.80;83.00
69595;DHT22;56800;52.142;5.364;2022-12-07T04:47:20;4.80;83.00
69595;DHT22;56800;52.142;5.364;2022-12-07T04:49:46;4.90;83.20
69595;DHT22;56800;52.142;5.364;2022-12-07T04:52:13;4.90;83.30
69595;DHT22;56800;52.142;5.364;2022-12-07T04:54:40;4.90;83.30
69595;DHT22;56800;52.142;5.364;2022-12-07T04:57:06;4.90;83.20
69595;DHT22;56800;52.142;5.364;2022-12-07T04:59:33;4.80;83.00
69595;DHT22;56800;52.142;5.364;2022-12-07T05:02:00;4.90;83.10
69595;DHT22;56800;52.142;5.364;2022-12-07T05:04:26;4.90;83.00
69595;DHT22;56800;52.142;5.364;2022-12-07T05:06:53;4.80;82.80
69595;DHT22;56800;52.142;5.364;2022-12-07T05:09:20;4.80;82.80
69595;DHT22;56800;52.142;5.364;2022-12-07T05:11:46;4.80;82.70
69595;DHT22;56800;52.142;5.364;2022-12-07T05:14:18;4.80;82.60
69595;DHT22;56800;52.142;5.364;2022-12-07T05:16:47;4.70;82.50
69595;DHT22;56800;52.142;5.364;2022-12-07T05:19:16;4.70;82.50
69595;DHT22;56800;52.142;5.364;2022-12-07T05:21:42;4.70;82.50
69595;DHT22;56800;52.142;5.364;2022-12-07T05:24:12;4.70;82.50
69595;DHT22;56800;52.142;5.364;2022-12-07T05:26:39;4.60;82.50
69595;DHT22;56800;52.142;5.364;2022-12-07T05:29:06;4.60;82.40
69595;DHT22;56800;52.142;5.364;2022-12-07T05:31:33;4.60;82.50
69595;DHT22;56800;52.142;5.364;2022-12-07T05:34:00;4.60;82.40
69595;DHT22;56800;52.142;5.364;2022-12-07T05:36:27;4.60;82.50
69595;DHT22;56800;52.142;5.364;2022-12-07T05:38:55;4.50;82.40
69595;DHT22;56800;52.142;5.364;2022-12-07T05:41:22;4.50;82.50
69595;DHT22;56800;52.142;5.364;2022-12-07T05:44:07;4.50;82.50
69595;DHT22;56800;52.142;5.364;2022-12-07T05:46:34;4.50;82.50
69595;DHT22;56800;52.142;5.364;2022-12-07T05:49:01;4.50;82.50
69595;DHT22;56800;52.142;5.364;2022-12-07T05:51:28;4.50;82.50
69595;DHT22;56800;52.142;5.364;2022-12-07T05:53:55;4.50;82.60
69595;DHT22;56800;52.142;5.364;2022-12-07T05:56:21;4.50;82.60
69595;DHT22;56800;52.142;5.364;2022-12-07T05:58:49;4.50;82.60
69595;DHT22;56800;52.142;5.364;2022-12-07T06:01:34;4.50;82.70
69595;DHT22;56800;52.142;5.364;2022-12-07T06:04:02;4.50;82.60
69595;DHT22;56800;52.142;5.364;2022-12-07T06:06:29;4.50;82.70
69595;DHT22;56800;52.142;5.364;2022-12-07T06:08:56;4.50;82.60
69595;DHT22;56800;52.142;5.364;2022-12-07T06:11:22;4.60;82.70
69595;DHT22;56800;52.142;5.364;2022-12-07T06:14:08;4.50;82.60
69595;DHT22;56800;52.142;5.364;2022-12-07T06:16:35;4.60;82.70
69595;DHT22;56800;52.142;5.364;2022-12-07T06:19:01;4.60;82.60
69595;DHT22;56800;52.142;5.364;2022-12-07T06:21:28;4.50;82.50
69595;DHT22;56800;52.142;5.364;2022-12-07T06:23:55;4.60;82.60
69595;DHT22;56800;52.142;5.364;2022-12-07T06:26:22;4.50;82.50
69595;DHT22;56800;52.142;5.364;2022-12-07T06:28:48;4.50;82.50
69595;DHT22;56800;52.142;5.364;2022-12-07T06:31:15;4.50;82.50
69595;DHT22;56800;52.142;5.364;2022-12-07T06:33:42;4.50;82.50
69595;DHT22;56800;52.142;5.364;2022-12-07T06:36:09;4.50;82.50
69595;DHT22;56800;52.142;5.364;2022-12-07T06:38:36;4.50;82.40
69595;DHT22;56800;52.142;5.364;2022-12-07T06:41:04;4.50;82.40
69595;DHT22;56800;52.142;5.364;2022-12-07T06:43:30;4.50;82.50
69595;DHT22;56800;52.142;5.364;2022-12-07T06:45:57;4.50;82.50
69595;DHT22;56800;52.142;5.364;2022-12-07T06:48:24;4.50;82.40
69595;DHT22;56800;52.142;5.364;2022-12-07T06:50:50;4.50;82.40
69595;DHT22;56800;52.142;5.364;2022-12-07T06:53:21;4.50;82.50
69595;DHT22;56800;52.142;5.364;2022-12-07T06:55:48;4.50;82.50
69595;DHT22;56800;52.142;5.364;2022-12-07T06:58:14;4.50;82.40
69595;DHT22;56800;52.142;5.364;2022-12-07T07:00:41;4.50;82.40
69595;DHT22;56800;52.142;5.364;2022-12-07T07:03:08;4.50;82.40
69595;DHT22;56800;52.142;5.364;2022-12-07T07:05:35;4.50;82.30
69595;DHT22;56800;52.142;5.364;2022-12-07T07:08:02;4.50;82.20
69595;DHT22;56800;52.142;5.364;2022-12-07T07:10:49;4.40;82.20
69595;DHT22;56800;52.142;5.364;2022-12-07T07:13:15;4.40;82.30
69595;DHT22;56800;52.142;5.364;2022-12-07T07:15:42;4.40;82.40
69595;DHT22;56800;52.142;5.364;2022-12-07T07:18:09;4.40;82.40
69595;DHT22;56800;52.142;5.364;2022-12-07T07:20:36;4.40;82.40
69595;DHT22;56800;52.142;5.364;2022-12-07T07:23:04;4.40;82.40
69595;DHT22;56800;52.142;5.364;2022-12-07T07:25:31;4.40;82.40
69595;DHT22;56800;52.142;5.364;2022-12-07T07:27:58;4.40;82.30
69595;DHT22;56800;52.142;5.364;2022-12-07T07:30:25;4.40;82.30
69595;DHT22;56800;52.142;5.364;2022-12-07T07:32:59;4.40;82.30
69595;DHT22;56800;52.142;5.364;2022-12-07T07:35:27;4.30;82.30
69595;DHT22;56800;52.142;5.364;2022-12-07T07:37:55;4.30;82.30
69595;DHT22;56800;52.142;5.364;2022-12-07T07:40:22;4.30;82.30
69595;DHT22;56800;52.142;5.364;2022-12-07T07:42:50;4.30;82.30
69595;DHT22;56800;52.142;5.364;2022-12-07T07:45:17;4.30;82.40
69595;DHT22;56800;52.142;5.364;2022-12-07T07:47:44;4.40;82.50
69595;DHT22;56800;52.142;5.364;2022-12-07T07:50:11;4.40;82.50
69595;DHT22;56800;52.142;5.364;2022-12-07T07:52:38;4.40;82.30
69595;DHT22;56800;52.142;5.364;2022-12-07T07:55:05;4.40;82.30
69595;DHT22;56800;52.142;5.364;2022-12-07T07:57:32;4.40;82.30
69595;DHT22;56800;52.142;5.364;2022-12-07T07:59:58;4.40;82.20
69595;DHT22;56800;52.142;5.364;2022-12-07T08:02:25;4.40;82.20
69595;DHT22;56800;52.142;5.364;2022-12-07T08:04:52;4.40;82.20
69595;DHT22;56800;52.142;5.364;2022-12-07T08:07:19;4.40;82.20
69595;DHT22;56800;52.142;5.364;2022-12-07T08:09:45;4.40;82.30
69595;DHT22;56800;52.142;5.364;2022-12-07T08:12:12;4.40;82.30
69595;DHT22;56800;52.142;5.364;2022-12-07T08:14:38;4.40;82.10
69595;DHT22;56800;52.142;5.364;2022-12-07T08:17:05;4.40;82.10
69595;DHT22;56800;52.142;5.364;2022-12-07T08:19:32;4.40;82.10
69595;DHT22;56800;52.142;5.364;2022-12-07T08:21:59;4.40;82.20
69595;DHT22;56800;52.142;5.364;2022-12-07T08:24:26;4.40;82.30
69595;DHT22;56800;52.142;5.364;2022-12-07T08:26:52;4.50;82.70
69595;DHT22;56800;52.142;5.364;2022-12-07T08:29:19;4.60;82.80
69595;DHT22;56800;52.142;5.364;2022-12-07T08:31:47;4.60;82.70
69595;DHT22;56800;52.142;5.364;2022-12-07T08:34:13;4.70;82.70
69595;DHT22;56800;52.142;5.364;2022-12-07T08:36:40;4.80;82.60
69595;DHT22;56800;52.142;5.364;2022-12-07T08:39:07;4.80;82.50
69595;DHT22;56800;52.142;5.364;2022-12-07T08:41:53;4.80;82.50
69595;DHT22;56800;52.142;5.364;2022-12-07T08:44:20;4.90;82.60
69595;DHT22;56800;52.142;5.364;2022-12-07T08:46:55;4.90;82.60
69595;DHT22;56800;52.142;5.364;2022-12-07T08:49:33;5.00;82.80
69595;DHT22;56800;52.142;5.364;2022-12-07T08:52:01;5.00;82.70
69595;DHT22;56800;52.142;5.364;2022-12-07T08:54:30;5.10;82.70
69595;DHT22;56800;52.142;5.364;2022-12-07T08:56:57;5.10;82.60
69595;DHT22;56800;52.142;5.364;2022-12-07T08:59:25;5.20;82.70
69595;DHT22;56800;52.142;5.364;2022-12-07T09:01:52;5.20;82.60
69595;DHT22;56800;52.142;5.364;2022-12-07T09:04:19;5.20;82.50
69595;DHT22;56800;52.142;5.364;2022-12-07T09:06:47;5.30;82.60
69595;DHT22;56800;52.142;5.364;2022-12-07T09:09:14;5.30;82.70
69595;DHT22;56800;52.142;5.364;2022-12-07T09:11:40;5.40;82.80
69595;DHT22;56800;52.142;5.364;2022-12-07T09:14:07;5.40;83.60
69595;DHT22;56800;52.142;5.364;2022-12-07T09:16:34;5.50;82.70
69595;DHT22;56800;52.142;5.364;2022-12-07T09:19:01;5.50;82.50
69595;DHT22;56800;52.142;5.364;2022-12-07T09:21:27;5.60;82.50
69595;DHT22;56800;52.142;5.364;2022-12-07T09:23:54;5.70;82.70
69595;DHT22;56800;52.142;5.364;2022-12-07T09:26:21;5.70;82.70
69595;DHT22;56800;52.142;5.364;2022-12-07T09:28:47;5.80;82.50
69595;DHT22;56800;52.142;5.364;2022-12-07T09:31:14;5.90;82.40
69595;DHT22;56800;52.142;5.364;2022-12-07T09:34:00;5.90;82.20
69595;DHT22;56800;52.142;5.364;2022-12-07T09:36:28;5.90;82.00
69595;DHT22;56800;52.142;5.364;2022-12-07T09:38:55;5.90;81.90
69595;DHT22;56800;52.142;5.364;2022-12-07T09:41:23;5.90;82.00
69595;DHT22;56800;52.142;5.364;2022-12-07T09:43:50;6.00;82.20
69595;DHT22;56800;52.142;5.364;2022-12-07T09:46:18;6.00;82.30
69595;DHT22;56800;52.142;5.364;2022-12-07T09:48:46;6.10;82.50
69595;DHT22;56800;52.142;5.364;2022-12-07T09:51:18;6.20;82.40
69595;DHT22;56800;52.142;5.364;2022-12-07T09:53:51;6.30;82.10
69595;DHT22;56800;52.142;5.364;2022-12-07T09:56:19;6.30;81.80
69595;DHT22;56800;52.142;5.364;2022-12-07T09:58:47;6.40;81.60
69595;DHT22;56800;52.142;5.364;2022-12-07T10:01:17;6.40;81.50
69595;DHT22;56800;52.142;5.364;2022-12-07T10:04:14;6.40;81.30
69595;DHT22;56800;52.142;5.364;2022-12-07T10:06:42;6.40;81.40
69595;DHT22;56800;52.142;5.364;2022-12-07T10:09:14;6.40;81.40
69595;DHT22;56800;52.142;5.364;2022-12-07T10:12:01;6.50;81.30
69595;DHT22;56800;52.142;5.364;2022-12-07T10:14:29;6.50;81.30
69595;DHT22;56800;52.142;5.364;2022-12-07T10:17:39;6.50;81.40
69595;DHT22;56800;52.142;5.364;2022-12-07T10:20:19;6.70;81.80
69595;DHT22;56800;52.142;5.364;2022-12-07T10:23:05;6.80;82.20
69595;DHT22;56800;52.142;5.364;2022-12-07T10:25:39;7.00;81.70
69595;DHT22;56800;52.142;5.364;2022-12-07T10:30:49;7.10;80.60
69595;DHT22;56800;52.142;5.364;2022-12-07T10:36:20;7.00;80.50
69595;DHT22;56800;52.142;5.364;2022-12-07T10:38:49;7.00;81.00
69595;DHT22;56800;52.142;5.364;2022-12-07T10:41:17;7.20;81.50
69595;DHT22;56800;52.142;5.364;2022-12-07T10:43:48;7.30;81.00
69595;DHT22;56800;52.142;5.364;2022-12-07T10:49:44;7.50;80.70
69595;DHT22;56800;52.142;5.364;2022-12-07T10:58:43;7.60;79.60
69595;DHT22;56800;52.142;5.364;2022-12-07T11:01:36;7.60;79.70
69595;DHT22;56800;52.142;5.364;2022-12-07T11:04:35;7.70;79.80
69595;DHT22;56800;52.142;5.364;2022-12-07T11:10:22;7.70;79.60
69595;DHT22;56800;52.142;5.364;2022-12-07T11:13:09;7.70;79.30
69595;DHT22;56800;52.142;5.364;2022-12-07T11:18:38;7.70;79.00
69595;DHT22;56800;52.142;5.364;2022-12-07T11:21:28;7.70;79.10
69595;DHT22;56800;52.142;5.364;2022-12-07T11:24:07;7.60;78.90
69595;DHT22;56800;52.142;5.364;2022-12-07T11:26:48;7.60;78.90
69595;DHT22;56800;52.142;5.364;2022-12-07T11:35:46;7.40;78.70
69595;DHT22;56800;52.142;5.364;2022-12-07T11:38:17;7.40;78.80
69595;DHT22;56800;52.142;5.364;2022-12-07T11:40:53;7.50;80.70
69595;DHT22;56800;52.142;5.364;2022-12-07T11:43:32;7.90;81.10
69595;DHT22;56800;52.142;5.364;2022-12-07T11:46:03;8.20;79.90
69595;DHT22;56800;52.142;5.364;2022-12-07T11:48:45;8.20;78.30
69595;DHT22;56800;52.142;5.364;2022-12-07T11:51:13;8.20;78.30
69595;DHT22;56800;52.142;5.364;2022-12-07T11:53:55;8.40;79.00
69595;DHT22;56800;52.142;5.364;2022-12-07T11:56:26;8.70;79.50
69595;DHT22;56800;52.142;5.364;2022-12-07T11:58:57;9.10;78.80
69595;DHT22;56800;52.142;5.364;2022-12-07T12:04:23;9.60;77.60
69595;DHT22;56800;52.142;5.364;2022-12-07T12:06:52;9.80;77.30
69595;DHT22;56800;52.142;5.364;2022-12-07T12:12:35;10.40;77.00
69595;DHT22;56800;52.142;5.364;2022-12-07T12:15:52;10.80;76.50
69595;DHT22;56800;52.142;5.364;2022-12-07T12:18:58;11.10;75.10
69595;DHT22;56800;52.142;5.364;2022-12-07T12:21:29;11.30;73.70
69595;DHT22;56800;52.142;5.364;2022-12-07T12:24:00;11.30;72.80
69595;DHT22;56800;52.142;5.364;2022-12-07T12:26:32;11.20;72.20
69595;DHT22;56800;52.142;5.364;2022-12-07T12:29:03;11.10;71.40
69595;DHT22;56800;52.142;5.364;2022-12-07T12:31:37;10.90;71.30
69595;DHT22;56800;52.142;5.364;2022-12-07T12:37:00;10.70;71.10
69595;DHT22;56800;52.142;5.364;2022-12-07T12:39:27;10.60;70.90
69595;DHT22;56800;52.142;5.364;2022-12-07T12:41:56;10.50;71.10
69595;DHT22;56800;52.142;5.364;2022-12-07T12:55:13;10.20;70.60
69595;DHT22;56800;52.142;5.364;2022-12-07T12:57:41;9.90;69.90
69595;DHT22;56800;52.142;5.364;2022-12-07T13:00:17;9.60;69.60
69595;DHT22;56800;52.142;5.364;2022-12-07T13:02:58;9.20;69.80
69595;DHT22;56800;52.142;5.364;2022-12-07T13:05:30;8.90;70.70
69595;DHT22;56800;52.142;5.364;2022-12-07T13:08:05;8.70;71.30
69595;DHT22;56800;52.142;5.364;2022-12-07T13:10:43;8.50;71.90
69595;DHT22;56800;52.142;5.364;2022-12-07T13:15:54;8.20;72.80
69595;DHT22;56800;52.142;5.364;2022-12-07T13:20:57;8.10;73.10
69595;DHT22;56800;52.142;5.364;2022-12-07T13:29:13;7.70;73.80
69595;DHT22;56800;52.142;5.364;2022-12-07T13:31:41;7.70;74.10
69595;DHT22;56800;52.142;5.364;2022-12-07T13:34:29;7.70;74.30
69595;DHT22;56800;52.142;5.364;2022-12-07T13:36:57;7.60;74.40
69595;DHT22;56800;52.142;5.364;2022-12-07T13:39:25;7.60;74.50
69595;DHT22;56800;52.142;5.364;2022-12-07T13:41:58;7.60;74.70
69595;DHT22;56800;52.142;5.364;2022-12-07T13:44:26;7.60;74.80
69595;DHT22;56800;52.142;5.364;2022-12-07T13:49:31;7.50;75.10
69595;DHT22;56800;52.142;5.364;2022-12-07T13:52:19;7.40;75.20
69595;DHT22;56800;52.142;5.364;2022-12-07T13:57:29;7.40;75.50
69595;DHT22;56800;52.142;5.364;2022-12-07T13:59:57;7.40;75.60
69595;DHT22;56800;52.142;5.364;2022-12-07T14:02:32;7.40;75.80
69595;DHT22;56800;52.142;5.364;2022-12-07T14:05:29;7.40;75.90
69595;DHT22;56800;52.142;5.364;2022-12-07T14:10:30;7.40;76.20
69595;DHT22;56800;52.142;5.364;2022-12-07T14:12:59;7.40;76.20
69595;DHT22;56800;52.142;5.364;2022-12-07T14:15:33;7.30;76.30
69595;DHT22;56800;52.142;5.364;2022-12-07T14:18:01;7.40;76.60
69595;DHT22;56800;52.142;5.364;2022-12-07T14:20:40;7.30;76.70
69595;DHT22;56800;52.142;5.364;2022-12-07T14:23:24;7.30;76.90
69595;DHT22;56800;52.142;5.364;2022-12-07T14:25:53;7.30;77.00
69595;DHT22;56800;52.142;5.364;2022-12-07T14:28:31;7.40;77.10
69595;DHT22;56800;52.142;5.364;2022-12-07T14:30:58;7.30;77.20
69595;DHT22;56800;52.142;5.364;2022-12-07T14:33:26;7.30;77.20
69595;DHT22;56800;52.142;5.364;2022-12-07T14:35:53;7.30;77.20
69595;DHT22;56800;52.142;5.364;2022-12-07T14:38:25;7.30;77.20
69595;DHT22;56800;52.142;5.364;2022-12-07T14:40:53;7.30;77.10
69595;DHT22;56800;52.142;5.364;2022-12-07T14:43:20;7.30;77.10
69595;DHT22;56800;52.142;5.364;2022-12-07T14:45:46;7.20;76.90
69595;DHT22;56800;52.142;5.364;2022-12-07T14:48:15;7.20;76.90
69595;DHT22;56800;52.142;5.364;2022-12-07T14:51:02;7.10;76.80
69595;DHT22;56800;52.142;5.364;2022-12-07T14:53:50;7.10;76.80
69595;DHT22;56800;52.142;5.364;2022-12-07T14:56:23;7.00;76.70
69595;DHT22;56800;52.142;5.364;2022-12-07T14:58:50;7.00;76.80
69595;DHT22;56800;52.142;5.364;2022-12-07T15:01:17;7.00;76.80
69595;DHT22;56800;52.142;5.364;2022-12-07T15:03:43;6.90;76.80
69595;DHT22;56800;52.142;5.364;2022-12-07T15:06:13;6.90;76.90
69595;DHT22;56800;52.142;5.364;2022-12-07T15:08:41;6.90;76.90
69595;DHT22;56800;52.142;5.364;2022-12-07T15:11:12;6.80;76.90
69595;DHT22;56800;52.142;5.364;2022-12-07T15:13:39;6.80;76.90
69595;DHT22;56800;52.142;5.364;2022-12-07T15:16:24;6.70;77.00
69595;DHT22;56800;52.142;5.364;2022-12-07T15:18:51;6.70;77.20
69595;DHT22;56800;52.142;5.364;2022-12-07T15:21:38;6.70;77.30
69595;DHT22;56800;52.142;5.364;2022-12-07T15:24:05;6.60;77.20
69595;DHT22;56800;52.142;5.364;2022-12-07T15:26:31;6.60;77.20
69595;DHT22;56800;52.142;5.364;2022-12-07T15:28:58;6.60;77.30
69595;DHT22;56800;52.142;5.364;2022-12-07T15:31:25;6.60;77.30
69595;DHT22;56800;52.142;5.364;2022-12-07T15:34:11;6.50;77.40
69595;DHT22;56800;52.142;5.364;2022-12-07T15:36:38;6.50;77.40
69595;DHT22;56800;52.142;5.364;2022-12-07T15:39:05;6.50;77.50
69595;DHT22;56800;52.142;5.364;2022-12-07T15:41:40;6.40;77.40
69595;DHT22;56800;52.142;5.364;2022-12-07T15:44:10;6.40;77.50
69595;DHT22;56800;52.142;5.364;2022-12-07T15:46:56;6.40;77.40
69595;DHT22;56800;52.142;5.364;2022-12-07T15:49:23;6.30;77.40
69595;DHT22;56800;52.142;5.364;2022-12-07T15:51:50;6.30;77.40
69595;DHT22;56800;52.142;5.364;2022-12-07T15:54:25;6.20;77.40
69595;DHT22;56800;52.142;5.364;2022-12-07T15:56:52;6.20;77.30
69595;DHT22;56800;52.142;5.364;2022-12-07T15:59:19;6.10;77.30
69595;DHT22;56800;52.142;5.364;2022-12-07T16:01:46;6.10;77.30
69595;DHT22;56800;52.142;5.364;2022-12-07T16:04:12;6.10;77.50
69595;DHT22;56800;52.142;5.364;2022-12-07T16:06:39;6.00;77.50
69595;DHT22;56800;52.142;5.364;2022-12-07T16:09:07;6.00;77.60
69595;DHT22;56800;52.142;5.364;2022-12-07T16:11:33;6.00;77.60
69595;DHT22;56800;52.142;5.364;2022-12-07T16:14:00;6.00;77.50
69595;DHT22;56800;52.142;5.364;2022-12-07T16:16:27;6.00;77.50
69595;DHT22;56800;52.142;5.364;2022-12-07T16:18:54;5.90;77.40
69595;DHT22;56800;52.142;5.364;2022-12-07T16:21:21;5.90;77.60
69595;DHT22;56800;52.142;5.364;2022-12-07T16:23:51;5.90;77.70
69595;DHT22;56800;52.142;5.364;2022-12-07T16:26:20;5.90;77.70
69595;DHT22;56800;52.142;5.364;2022-12-07T16:28:51;5.90;77.70
69595;DHT22;56800;52.142;5.364;2022-12-07T16:31:20;5.80;77.80
69595;DHT22;56800;52.142;5.364;2022-12-07T16:33:47;5.80;77.80
69595;DHT22;56800;52.142;5.364;2022-12-07T16:36:16;5.80;77.80
69595;DHT22;56800;52.142;5.364;2022-12-07T16:39:04;5.80;77.80
69595;DHT22;56800;52.142;5.364;2022-12-07T16:41:31;5.80;77.90
69595;DHT22;56800;52.142;5.364;2022-12-07T16:44:03;5.80;77.90
69595;DHT22;56800;52.142;5.364;2022-12-07T16:46:35;5.80;78.00
69595;DHT22;56800;52.142;5.364;2022-12-07T16:49:03;5.80;78.00
69595;DHT22;56800;52.142;5.364;2022-12-07T16:51:30;5.80;78.00
69595;DHT22;56800;52.142;5.364;2022-12-07T16:53:57;5.80;78.00
69595;DHT22;56800;52.142;5.364;2022-12-07T16:56:24;5.70;78.10
69595;DHT22;56800;52.142;5.364;2022-12-07T16:58:52;5.70;78.20
69595;DHT22;56800;52.142;5.364;2022-12-07T17:01:20;5.70;78.20
69595;DHT22;56800;52.142;5.364;2022-12-07T17:03:50;5.70;78.30
69595;DHT22;56800;52.142;5.364;2022-12-07T17:06:20;5.70;78.30
69595;DHT22;56800;52.142;5.364;2022-12-07T17:08:48;5.60;78.30
69595;DHT22;56800;52.142;5.364;2022-12-07T17:11:17;5.60;78.40
69595;DHT22;56800;52.142;5.364;2022-12-07T17:13:44;5.60;78.40
69595;DHT22;56800;52.142;5.364;2022-12-07T17:16:30;5.60;78.40
69595;DHT22;56800;52.142;5.364;2022-12-07T17:18:57;5.60;78.40
69595;DHT22;56800;52.142;5.364;2022-12-07T17:21:24;5.60;78.40
69595;DHT22;56800;52.142;5.364;2022-12-07T17:23:51;5.60;78.50
69595;DHT22;56800;52.142;5.364;2022-12-07T17:26:23;5.60;78.40
69595;DHT22;56800;52.142;5.364;2022-12-07T17:28:57;5.60;78.40
69595;DHT22;56800;52.142;5.364;2022-12-07T17:31:25;5.50;79.20
69595;DHT22;56800;52.142;5.364;2022-12-07T17:33:52;5.50;78.40
69595;DHT22;56800;52.142;5.364;2022-12-07T17:36:30;5.50;78.50